createdAt,value
2023-03-27T00:00:02.610Z,1.6
2023-03-27T00:15:03.081Z,1.3
2023-03-27T00:30:02.518Z,1.1
2023-03-27T00:45:02.964Z,1.0
2023-03-27T01:00:02.481Z,0.7
2023-03-27T01:15:02.877Z,0.7
2023-03-27T01:30:02.476Z,0.7
2023-03-27T01:45:02.745Z,0.5
2023-03-27T02:00:18.144Z,0.3
2023-03-27T02:15:24.448Z,0.3
2023-03-27T02:30:03.048Z,0.1
2023-03-27T02:45:02.487Z,0.0
2023-03-27T03:00:02.945Z,0.1
2023-03-27T03:15:02.511Z,0.1
2023-03-27T03:30:02.830Z,0.1
2023-03-27T03:45:02.250Z,0.0
2023-03-27T04:00:02.683Z,0.0
2023-03-27T04:15:03.109Z,0.0
2023-03-27T04:30:02.560Z,0.0
2023-03-27T04:45:02.969Z,0.0
2023-03-27T05:00:02.524Z,0.1
2023-03-27T05:15:02.887Z,0.3
2023-03-27T05:30:02.564Z,0.4
2023-03-27T05:45:02.755Z,0.2
2023-03-27T06:00:03.196Z,0.4
2023-03-27T06:15:02.645Z,0.5
2023-03-27T06:30:03.083Z,0.9
2023-03-27T06:45:02.543Z,1.4
2023-03-27T07:00:02.990Z,2.1
2023-03-27T07:15:02.552Z,3.3
2023-03-27T07:30:02.810Z,3.9
2023-03-27T07:45:04.445Z,4.2
2023-03-27T08:00:02.714Z,4.8
2023-03-27T08:15:03.128Z,4.8
2023-03-27T08:30:02.553Z,6.2
2023-03-27T08:45:03.038Z,6.7
2023-03-27T09:00:02.566Z,7.7
2023-03-27T09:15:02.919Z,7.5
2023-03-27T09:30:05.880Z,7.4
2023-03-27T09:45:02.789Z,7.4
2023-03-27T10:00:03.223Z,7.3
2023-03-27T10:15:02.672Z,7.0
2023-03-27T10:30:03.135Z,6.2
2023-03-27T10:45:02.573Z,7.1
2023-03-27T11:00:03.001Z,5.8
2023-03-27T11:15:02.569Z,6.0
2023-03-27T11:30:02.871Z,8.0
2023-03-27T11:45:02.299Z,9.2
2023-03-27T12:00:02.748Z,5.1
2023-03-27T12:15:03.203Z,6.4
2023-03-27T12:30:02.621Z,5.4
2023-03-27T12:45:03.037Z,6.7
2023-03-27T13:00:02.603Z,8.1
2023-03-27T13:15:02.909Z,8.9
2023-03-27T13:30:02.660Z,7.7
2023-03-27T13:45:02.816Z,6.9
2023-03-27T14:00:02.253Z,8.1
2023-03-27T14:15:02.684Z,7.8
2023-03-27T14:30:03.160Z,7.7
2023-03-27T14:45:02.620Z,7.7
2023-03-27T15:00:03.017Z,7.9
2023-03-27T15:15:02.629Z,8.3
2023-03-27T15:30:02.903Z,7.9
2023-03-27T15:45:02.330Z,7.5
2023-03-27T16:00:02.771Z,7.3
2023-03-27T16:15:05.943Z,6.8
2023-03-27T16:30:02.655Z,5.6
2023-03-27T16:45:03.060Z,5.1
2023-03-27T17:00:02.658Z,5.1
2023-03-27T17:15:02.976Z,5.0
2023-03-27T17:30:02.404Z,4.5
2023-03-27T17:45:02.836Z,4.3
2023-03-27T18:00:03.142Z,4.2
2023-03-27T18:15:02.754Z,3.9
2023-03-27T18:30:02.163Z,3.8
2023-03-27T18:45:02.667Z,3.7
2023-03-27T19:00:03.019Z,3.6
2023-03-27T19:15:13.305Z,3.4
2023-03-27T19:30:02.913Z,3.2
2023-03-27T19:45:02.347Z,3.0
2023-03-27T20:00:02.800Z,2.9
2023-03-27T20:15:11.826Z,2.8
2023-03-27T20:30:02.680Z,2.7
2023-03-27T20:45:03.104Z,2.6
2023-03-27T21:00:02.701Z,2.5
2023-03-27T21:15:02.963Z,2.4
2023-03-27T21:30:02.453Z,2.5
2023-03-27T21:45:02.871Z,2.6
2023-03-27T22:00:02.333Z,2.6
2023-03-27T22:15:02.755Z,2.5
2023-03-27T22:30:02.165Z,2.5
2023-03-27T22:45:02.712Z,2.5
2023-03-27T23:00:03.035Z,2.3
2023-03-27T23:15:02.692Z,2.2
2023-03-27T23:30:02.934Z,2.0
2023-03-27T23:45:02.344Z,1.8
